LFBO/TLS METAR and TAF weather

Enter ICAO airport designator
Station Type Date Time Source
LFBO METAR 2021/05/15 01:00 UTC NOAA

LFBO 150100Z AUTO 22003KT 9999 -RA NSC 12/10 Q1015 NOSIG


Station Type Date Time Source
LFBO Decoded METAR 2021/05/15 01:00 UTC NOAA

Toulouse / Blagnac, France (LFBO) 43-38N 001-22E 153M
May 14, 2021 - 09:00 PM EDT / 2021.05.15 0100 UTC
Wind: from the SW (220 degrees) at 3 MPH (3 KT):0
Visibility: greater than 7 mile(s):0
Weather: light rain
Temperature: 53 F (12 C)
Dew Point: 50 F (10 C)
Relative Humidity: 87%
Pressure (altimeter): 29.97 in. Hg (1015 hPa)
ob: LFBO 150100Z AUTO 22003KT 9999 -RA NSC 12/10 Q1015 NOSIG
cycle: 1

Station Type Date Time Source
LFBO TAF 2021/05/14 18:44 UTC NOAA

TAF LFBO 141700Z 1418/1524 28010KT CAVOK
BECMG 1419/1421 22007KT
TEMPO 1504/1511 -RA BKN025 PROB30
TEMPO 1511/1514 SCT020 BKN030
BECMG 1517/1519 -RA BKN040
TEMPO 1517/1521 4000 RA BKN020

Example: see airport list